createdAt,value
2023-01-13T00:07:29.343Z,15.75
2023-01-13T00:10:16.209Z,15.13
2023-01-13T00:13:04.125Z,15.45
2023-01-13T00:16:05.774Z,19.15
2023-01-13T00:18:52.182Z,16.92
2023-01-13T00:21:38.515Z,14.57
2023-01-13T00:24:24.444Z,13.82
2023-01-13T00:27:11.069Z,12.48
2023-01-13T00:29:59.028Z,12.43
2023-01-13T00:32:45.525Z,13.05
2023-01-13T00:35:31.392Z,12.98
2023-01-13T00:38:17.808Z,11.85
2023-01-13T00:41:06.276Z,11.60
2023-01-13T00:43:52.538Z,10.45
2023-01-13T00:46:38.478Z,12.55
2023-01-13T00:49:24.431Z,9.73
2023-01-13T00:52:10.171Z,10.50
2023-01-13T00:54:56.315Z,9.20
2023-01-13T00:57:42.043Z,14.10
2023-01-13T01:00:28.519Z,10.30
2023-01-13T01:03:14.074Z,11.02
2023-01-13T01:06:18.660Z,12.40
2023-01-13T01:09:05.097Z,15.57
2023-01-13T01:11:51.300Z,11.75
2023-01-13T01:14:37.021Z,12.80
2023-01-13T01:17:23.394Z,13.57
2023-01-13T01:20:10.217Z,9.80
2023-01-13T01:22:56.648Z,14.60
2023-01-13T01:25:42.626Z,11.07
2023-01-13T01:28:29.161Z,12.52
2023-01-13T01:31:31.492Z,10.38
2023-01-13T01:34:17.374Z,11.40
2023-01-13T01:37:02.952Z,12.27
2023-01-13T01:39:48.957Z,13.60
2023-01-13T01:42:53.225Z,11.98
2023-01-13T01:45:39.608Z,15.00
2023-01-13T01:48:27.649Z,13.85
2023-01-13T01:51:14.773Z,13.20
2023-01-13T01:54:03.625Z,11.63
2023-01-13T01:56:50.762Z,11.50
2023-01-13T01:59:37.354Z,9.48
2023-01-13T02:02:26.233Z,10.82
2023-01-13T02:05:13.109Z,9.07
2023-01-13T02:07:59.949Z,9.70
2023-01-13T02:10:48.596Z,7.30
2023-01-13T02:13:35.679Z,8.57
2023-01-13T02:16:24.964Z,7.80
2023-01-13T02:19:52.773Z,8.20
2023-01-13T02:22:59.619Z,10.80
2023-01-13T02:26:01.622Z,11.50
2023-01-13T02:29:31.163Z,8.43
2023-01-13T02:32:30.920Z,10.20
2023-01-13T02:35:37.563Z,10.48
2023-01-13T02:38:29.967Z,9.20
2023-01-13T02:41:43.499Z,9.30
2023-01-13T02:44:35.715Z,11.18
2023-01-13T02:47:24.736Z,10.57
2023-01-13T02:50:17.547Z,13.50
2023-01-13T02:53:26.806Z,11.68
2023-01-13T02:56:15.971Z,11.30
2023-01-13T02:59:03.068Z,10.65
2023-01-13T03:01:50.509Z,8.48
2023-01-13T03:04:48.439Z,10.15
2023-01-13T03:07:57.221Z,11.48
2023-01-13T03:11:03.261Z,10.88
2023-01-13T03:14:09.414Z,9.80
2023-01-13T03:17:17.993Z,10.07
2023-01-13T03:20:15.760Z,9.10
2023-01-13T03:23:08.353Z,8.82
2023-01-13T03:25:59.469Z,8.65
2023-01-13T03:31:49.315Z,10.05
2023-01-13T03:34:45.993Z,33.70
2023-01-13T03:37:36.696Z,38.28
2023-01-13T03:40:27.448Z,14.73
2023-01-13T03:43:37.691Z,16.88
2023-01-13T03:46:32.010Z,11.30
2023-01-13T03:49:24.004Z,10.32
2023-01-13T03:52:13.275Z,11.60
2023-01-13T03:55:18.737Z,8.05
2023-01-13T03:58:15.268Z,9.73
2023-01-13T04:01:16.711Z,9.10
2023-01-13T04:07:05.119Z,13.35
2023-01-13T04:09:53.460Z,9.13
2023-01-13T04:13:04.769Z,10.82
2023-01-13T04:15:50.709Z,24.92
2023-01-13T04:18:39.117Z,39.10
2023-01-13T04:21:25.542Z,10.25
2023-01-13T04:24:14.992Z,7.45
2023-01-13T04:27:01.027Z,6.20
2023-01-13T04:29:48.407Z,5.57
2023-01-13T04:32:35.542Z,8.95
2023-01-13T04:35:22.544Z,6.47
2023-01-13T04:38:11.695Z,6.30
2023-01-13T04:40:58.778Z,4.40
2023-01-13T04:43:44.764Z,10.77
2023-01-13T04:46:31.528Z,10.07
2023-01-13T04:49:18.007Z,8.82
2023-01-13T04:52:07.139Z,6.47
2023-01-13T04:54:53.381Z,5.93
2023-01-13T04:57:39.800Z,9.07
2023-01-13T05:00:26.045Z,5.97
2023-01-13T05:03:12.206Z,6.53
2023-01-13T05:05:58.546Z,8.93
2023-01-13T05:08:44.714Z,9.90
2023-01-13T05:11:49.396Z,7.38
2023-01-13T05:14:55.070Z,9.82
2023-01-13T05:17:43.215Z,7.97
2023-01-13T05:20:29.310Z,6.25
2023-01-13T05:23:34.685Z,8.48
2023-01-13T05:26:23.695Z,6.53
2023-01-13T05:29:09.714Z,5.65
2023-01-13T05:31:55.775Z,6.18
2023-01-13T05:34:41.580Z,6.32
2023-01-13T05:37:29.177Z,8.07
2023-01-13T05:40:35.718Z,8.75
2023-01-13T05:43:24.982Z,7.18
2023-01-13T05:46:12.151Z,6.03
2023-01-13T05:49:00.128Z,7.03
2023-01-13T05:51:47.532Z,6.85
2023-01-13T05:54:33.876Z,12.20
2023-01-13T05:57:20.239Z,81.57
2023-01-13T06:00:09.403Z,7.80
2023-01-13T06:02:58.414Z,8.95
2023-01-13T06:05:44.801Z,6.80
2023-01-13T06:08:31.858Z,8.90
2023-01-13T06:11:17.877Z,8.02
2023-01-13T06:14:04.209Z,7.88
2023-01-13T06:16:50.525Z,7.60
2023-01-13T06:19:36.446Z,7.95
2023-01-13T06:22:28.714Z,7.55
2023-01-13T06:25:36.958Z,10.00
2023-01-13T06:28:23.193Z,8.95
2023-01-13T06:31:10.761Z,12.82
2023-01-13T06:34:06.923Z,15.75
2023-01-13T06:36:54.300Z,14.65
2023-01-13T06:39:41.041Z,18.27
2023-01-13T06:42:47.789Z,12.90
2023-01-13T06:45:34.926Z,12.45
2023-01-13T06:48:29.117Z,11.70
2023-01-13T06:51:15.808Z,11.43
2023-01-13T06:54:02.297Z,12.57
2023-01-13T06:56:49.297Z,39.05
2023-01-13T06:59:35.491Z,20.83
2023-01-13T07:02:21.847Z,23.45
2023-01-13T07:05:12.427Z,12.60
2023-01-13T07:07:58.401Z,11.27
2023-01-13T07:10:44.592Z,10.40
2023-01-13T07:13:50.664Z,11.57
2023-01-13T07:16:37.150Z,10.55
2023-01-13T07:19:26.106Z,10.80
2023-01-13T07:22:14.025Z,11.02
2023-01-13T07:25:00.322Z,11.07
2023-01-13T07:27:46.908Z,11.05
2023-01-13T07:30:33.713Z,12.70
2023-01-13T07:33:19.899Z,11.10
2023-01-13T07:36:06.555Z,11.05
2023-01-13T07:38:54.748Z,11.45
2023-01-13T07:42:00.174Z,10.23
2023-01-13T07:44:46.723Z,11.15
2023-01-13T07:47:33.461Z,10.43
2023-01-13T07:50:21.314Z,10.65
2023-01-13T07:53:07.505Z,13.30
2023-01-13T07:55:57.609Z,11.82
2023-01-13T07:58:45.147Z,11.80
2023-01-13T08:01:32.539Z,12.27
2023-01-13T08:04:18.643Z,10.13
2023-01-13T08:07:05.681Z,10.55
2023-01-13T08:09:52.121Z,12.05
2023-01-13T08:12:57.014Z,10.52
2023-01-13T08:15:47.641Z,11.85
2023-01-13T08:18:34.731Z,10.98
2023-01-13T08:21:21.349Z,11.10
2023-01-13T08:24:09.345Z,12.45
2023-01-13T08:26:55.496Z,9.50
2023-01-13T08:29:42.225Z,12.82
2023-01-13T08:32:28.306Z,12.40
2023-01-13T08:35:14.816Z,12.77
2023-01-13T08:38:00.795Z,11.90
2023-01-13T08:40:46.625Z,9.68
2023-01-13T08:43:33.224Z,9.40
2023-01-13T08:46:19.317Z,11.75
2023-01-13T08:49:05.687Z,11.25
2023-01-13T08:51:52.714Z,12.45
2023-01-13T08:54:39.877Z,11.32
2023-01-13T08:57:26.198Z,10.85
2023-01-13T09:00:13.007Z,11.90
2023-01-13T09:02:59.423Z,14.88
2023-01-13T09:05:45.716Z,13.15
2023-01-13T09:08:32.097Z,11.32
2023-01-13T09:11:38.802Z,13.25
2023-01-13T09:14:29.316Z,17.38
2023-01-13T09:17:16.066Z,11.40
2023-01-13T09:20:01.836Z,12.05
2023-01-13T09:22:47.783Z,9.50
2023-01-13T09:25:35.748Z,14.15
2023-01-13T09:28:22.039Z,23.08
2023-01-13T09:31:08.680Z,27.45
2023-01-13T09:34:14.731Z,27.17
2023-01-13T09:37:01.537Z,14.20
2023-01-13T09:39:47.949Z,14.13
2023-01-13T09:43:08.193Z,16.98
2023-01-13T09:46:27.621Z,15.02
2023-01-13T09:49:23.064Z,12.73
2023-01-13T09:52:12.178Z,12.95
2023-01-13T09:55:05.844Z,45.55
2023-01-13T09:57:51.980Z,45.60
2023-01-13T10:00:44.920Z,140.75
2023-01-13T10:03:33.447Z,21.25
2023-01-13T10:06:34.789Z,47.97
2023-01-13T10:09:39.653Z,11.20
2023-01-13T10:12:45.041Z,22.67
2023-01-13T10:15:31.472Z,27.45
2023-01-13T10:18:26.197Z,12.90
2023-01-13T10:21:33.451Z,20.95
2023-01-13T10:24:47.191Z,13.70
2023-01-13T10:27:38.865Z,13.82
2023-01-13T10:30:31.564Z,11.55
2023-01-13T10:33:20.681Z,10.45
2023-01-13T10:36:12.467Z,9.43
2023-01-13T10:39:09.737Z,13.55
2023-01-13T10:42:06.894Z,10.77
2023-01-13T10:44:57.906Z,10.48
2023-01-13T10:47:43.863Z,10.20
2023-01-13T10:50:30.705Z,17.75
2023-01-13T10:53:21.367Z,12.18
2023-01-13T10:59:22.537Z,9.32
2023-01-13T11:02:24.362Z,12.40
2023-01-13T11:05:22.973Z,10.07
2023-01-13T11:08:18.062Z,10.18
2023-01-13T11:11:04.966Z,11.65
2023-01-13T11:14:11.089Z,11.02
2023-01-13T11:16:59.121Z,16.52
2023-01-13T11:19:58.637Z,12.73
2023-01-13T11:22:56.226Z,12.23
2023-01-13T11:25:45.699Z,10.15
2023-01-13T11:28:39.722Z,8.95
2023-01-13T11:31:37.173Z,16.60
2023-01-13T11:34:36.085Z,17.48
2023-01-13T11:37:27.967Z,18.30
2023-01-13T11:40:22.159Z,16.63
2023-01-13T11:43:19.503Z,14.18
2023-01-13T11:46:06.509Z,19.05
2023-01-13T11:48:56.460Z,12.25
2023-01-13T11:52:13.186Z,15.63
2023-01-13T11:55:22.519Z,14.65
2023-01-13T11:58:21.250Z,19.17
2023-01-13T12:01:27.032Z,19.65
2023-01-13T12:04:36.359Z,14.55
2023-01-13T12:07:58.792Z,24.55
2023-01-13T12:11:04.251Z,14.82
2023-01-13T12:14:22.444Z,22.80
2023-01-13T12:17:34.570Z,95.03
2023-01-13T12:20:39.915Z,24.20
2023-01-13T12:23:45.785Z,34.60
2023-01-13T12:26:38.819Z,23.33
2023-01-13T12:29:34.685Z,23.08
2023-01-13T12:32:35.730Z,13.95
2023-01-13T12:35:40.708Z,14.70
2023-01-13T12:38:37.778Z,35.40
2023-01-13T12:42:00.672Z,90.65
2023-01-13T12:45:11.944Z,95.88
2023-01-13T12:47:59.132Z,56.17
2023-01-13T12:51:00.735Z,40.60
2023-01-13T12:53:47.779Z,36.63
2023-01-13T12:56:44.887Z,36.13
2023-01-13T12:59:30.624Z,32.17
2023-01-13T13:02:29.960Z,95.65
2023-01-13T13:05:15.805Z,131.25
2023-01-13T13:08:11.273Z,88.18
2023-01-13T13:11:34.219Z,64.65
2023-01-13T13:14:39.432Z,27.63
2023-01-13T13:17:34.108Z,23.77
2023-01-13T13:20:58.567Z,19.45
2023-01-13T13:23:57.369Z,29.05
2023-01-13T13:26:46.301Z,28.52
2023-01-13T13:29:47.201Z,34.65
2023-01-13T13:32:57.978Z,79.15
2023-01-13T13:36:26.265Z,163.75
2023-01-13T13:39:42.707Z,220.85
2023-01-13T13:42:39.453Z,192.65
2023-01-13T13:45:45.844Z,147.00
2023-01-13T13:48:32.032Z,161.57
2023-01-13T13:51:41.636Z,283.92
2023-01-13T13:54:27.566Z,110.22
2023-01-13T13:57:19.671Z,157.15
2023-01-13T14:00:28.063Z,327.67
2023-01-13T14:03:35.672Z,309.08
2023-01-13T14:06:24.413Z,64.13
2023-01-13T14:09:19.280Z,41.05
2023-01-13T14:12:09.236Z,56.33
2023-01-13T14:14:57.693Z,57.13
2023-01-13T14:17:43.359Z,38.53
2023-01-13T14:20:30.579Z,57.50
2023-01-13T14:23:24.120Z,66.88
2023-01-13T14:26:13.115Z,81.18
2023-01-13T14:29:01.414Z,49.28
2023-01-13T14:31:49.510Z,141.50
2023-01-13T14:34:37.890Z,133.13
2023-01-13T14:37:42.902Z,144.20
2023-01-13T14:40:39.543Z,50.25
2023-01-13T14:43:26.188Z,81.50
2023-01-13T14:46:13.819Z,72.63
2023-01-13T14:49:01.841Z,75.28
2023-01-13T14:51:47.885Z,31.80
2023-01-13T14:54:55.187Z,45.08
2023-01-13T14:57:47.203Z,51.65
2023-01-13T15:00:34.108Z,70.90
2023-01-13T15:03:22.150Z,51.55
2023-01-13T15:06:28.673Z,133.05
2023-01-13T15:09:14.645Z,42.70
2023-01-13T15:12:15.114Z,59.45
2023-01-13T15:15:02.242Z,97.20
2023-01-13T15:17:49.691Z,114.38
2023-01-13T15:20:36.229Z,69.05
2023-01-13T15:23:23.228Z,59.70
2023-01-13T15:26:30.185Z,60.25
2023-01-13T15:29:16.798Z,49.20
2023-01-13T15:32:03.291Z,39.78
2023-01-13T15:34:49.473Z,40.53
2023-01-13T15:37:36.425Z,52.08
2023-01-13T15:40:31.612Z,41.00
2023-01-13T15:43:41.602Z,88.18
2023-01-13T15:46:40.724Z,53.40
2023-01-13T15:49:37.469Z,44.78
2023-01-13T15:52:26.839Z,42.58
2023-01-13T15:55:14.459Z,158.45
2023-01-13T15:58:01.898Z,39.78
2023-01-13T16:00:48.568Z,34.72
2023-01-13T16:03:34.833Z,35.63
2023-01-13T16:06:32.957Z,27.73
2023-01-13T16:09:20.792Z,43.08
2023-01-13T16:12:08.169Z,24.00
2023-01-13T16:14:55.582Z,24.27
2023-01-13T16:17:42.477Z,24.00
2023-01-13T16:20:29.854Z,31.85
2023-01-13T16:23:15.684Z,45.28
2023-01-13T16:26:06.742Z,60.05
2023-01-13T16:28:54.496Z,45.90
2023-01-13T16:31:41.608Z,64.15
2023-01-13T16:34:28.043Z,67.30
2023-01-13T16:37:25.303Z,77.00
2023-01-13T16:40:39.589Z,54.42
2023-01-13T16:43:32.308Z,66.72
2023-01-13T16:46:29.303Z,45.53
2023-01-13T16:49:18.494Z,30.83
2023-01-13T16:52:05.484Z,34.90
2023-01-13T16:54:51.941Z,33.50
2023-01-13T16:57:37.931Z,28.45
2023-01-13T17:00:26.162Z,21.25
2023-01-13T17:03:15.550Z,20.40
2023-01-13T17:06:03.850Z,18.40
2023-01-13T17:08:53.143Z,18.95
2023-01-13T17:11:41.565Z,311.17
2023-01-13T17:14:27.817Z,77.10
2023-01-13T17:17:25.698Z,41.85
2023-01-13T17:20:12.677Z,38.65
2023-01-13T17:22:59.434Z,41.63
2023-01-13T17:25:45.100Z,44.47
2023-01-13T17:28:31.449Z,82.88
2023-01-13T17:31:18.201Z,33.80
2023-01-13T17:34:05.325Z,28.63
2023-01-13T17:36:53.684Z,33.05
2023-01-13T17:39:41.082Z,24.55
2023-01-13T17:42:29.152Z,18.42
2023-01-13T17:45:14.966Z,21.50
2023-01-13T17:48:01.417Z,23.92
2023-01-13T17:50:48.693Z,21.23
2023-01-13T17:53:34.752Z,21.80
2023-01-13T17:56:20.846Z,119.93
2023-01-13T17:59:07.823Z,24.92
2023-01-13T18:01:55.847Z,26.30
2023-01-13T18:04:42.799Z,23.27
2023-01-13T18:07:29.381Z,17.13
2023-01-13T18:10:15.054Z,42.67
2023-01-13T18:13:03.628Z,31.98
2023-01-13T18:15:49.566Z,28.35
2023-01-13T18:18:36.756Z,32.22
2023-01-13T18:21:44.073Z,56.20
2023-01-13T18:24:48.844Z,25.02
2023-01-13T18:27:38.476Z,21.67
2023-01-13T18:30:25.732Z,29.13
2023-01-13T18:33:11.826Z,40.15
2023-01-13T18:35:57.794Z,63.28
2023-01-13T18:38:43.666Z,87.43
2023-01-13T18:41:48.843Z,73.90
2023-01-13T18:44:36.355Z,55.78
2023-01-13T18:47:24.716Z,45.00
2023-01-13T18:50:14.608Z,38.50
2023-01-13T18:53:01.536Z,33.35
2023-01-13T18:55:47.290Z,53.40
2023-01-13T18:58:33.766Z,41.38
2023-01-13T19:01:25.839Z,36.17
2023-01-13T19:04:16.129Z,32.35
2023-01-13T19:07:02.302Z,26.85
2023-01-13T19:09:50.258Z,25.50
2023-01-13T19:12:36.506Z,22.33
2023-01-13T19:15:22.612Z,20.02
2023-01-13T19:18:08.695Z,18.48
2023-01-13T19:20:55.114Z,28.45
2023-01-13T19:23:41.222Z,27.48
2023-01-13T19:26:27.809Z,78.13
2023-01-13T19:29:14.536Z,18.60
2023-01-13T19:32:01.721Z,16.70
2023-01-13T19:34:51.380Z,16.90
2023-01-13T19:37:38.590Z,20.08
2023-01-13T19:40:24.572Z,31.67
2023-01-13T19:43:30.510Z,27.75
2023-01-13T19:46:16.821Z,44.95
2023-01-13T19:49:03.618Z,39.13
2023-01-13T19:51:49.974Z,38.40
2023-01-13T19:54:36.561Z,28.77
2023-01-13T19:57:22.988Z,30.30
2023-01-13T20:00:10.447Z,28.23
2023-01-13T20:03:03.430Z,30.52
2023-01-13T20:05:50.525Z,33.67
2023-01-13T20:08:37.258Z,34.85
2023-01-13T20:11:26.078Z,37.03
2023-01-13T20:14:12.816Z,30.58
2023-01-13T20:16:59.130Z,47.10
2023-01-13T20:19:45.275Z,39.35
2023-01-13T20:22:32.250Z,34.17
2023-01-13T20:25:19.477Z,23.50
2023-01-13T20:28:06.861Z,21.05
2023-01-13T20:30:53.661Z,18.48
2023-01-13T20:33:40.591Z,21.23
2023-01-13T20:36:31.269Z,19.58
2023-01-13T20:39:20.727Z,15.40
2023-01-13T20:42:25.082Z,17.67
2023-01-13T20:45:17.306Z,17.08
2023-01-13T20:48:03.999Z,18.48
2023-01-13T20:50:54.447Z,23.20
2023-01-13T20:53:41.168Z,21.40
2023-01-13T20:56:27.763Z,17.60
2023-01-13T20:59:13.806Z,21.13
2023-01-13T21:02:00.111Z,23.77
2023-01-13T21:04:46.314Z,19.60
2023-01-13T21:07:32.633Z,18.20
2023-01-13T21:10:21.785Z,12.05
2023-01-13T21:13:29.291Z,17.55
2023-01-13T21:16:16.357Z,13.65
2023-01-13T21:19:10.745Z,17.45
2023-01-13T21:21:56.805Z,17.40
2023-01-13T21:24:44.018Z,19.02
2023-01-13T21:27:31.075Z,20.45
2023-01-13T21:30:17.920Z,20.92
2023-01-13T21:33:06.441Z,15.60
2023-01-13T21:35:53.040Z,12.98
2023-01-13T21:38:38.906Z,12.07
2023-01-13T21:41:44.545Z,9.82
2023-01-13T21:44:49.308Z,11.18
2023-01-13T21:47:50.771Z,8.65
2023-01-13T21:53:24.941Z,8.68
2023-01-13T21:56:10.755Z,14.85
2023-01-13T21:58:57.337Z,14.95
2023-01-13T22:02:00.158Z,12.93
2023-01-13T22:04:49.358Z,16.67
2023-01-13T22:07:36.095Z,20.17
2023-01-13T22:10:24.556Z,13.02
2023-01-13T22:13:29.879Z,15.73
2023-01-13T22:16:16.638Z,14.20
2023-01-13T22:19:02.588Z,10.85
2023-01-13T22:21:48.783Z,10.73
2023-01-13T22:24:34.960Z,11.73
2023-01-13T22:27:26.363Z,11.68
2023-01-13T22:30:22.044Z,11.70
2023-01-13T22:33:08.449Z,11.25
2023-01-13T22:35:57.447Z,10.65
2023-01-13T22:38:43.883Z,8.02
2023-01-13T22:41:30.211Z,6.70
2023-01-13T22:44:16.561Z,7.35
2023-01-13T22:47:02.229Z,9.65
2023-01-13T22:49:48.407Z,9.45
2023-01-13T22:52:35.664Z,31.08
2023-01-13T22:55:21.650Z,12.38
2023-01-13T22:58:07.459Z,8.50
2023-01-13T23:00:54.993Z,6.60
2023-01-13T23:03:41.086Z,8.50
2023-01-13T23:06:28.282Z,11.20
2023-01-13T23:09:14.114Z,7.00
2023-01-13T23:12:00.398Z,4.75
2023-01-13T23:14:46.314Z,8.48
2023-01-13T23:17:32.438Z,6.45
2023-01-13T23:20:19.400Z,8.07
2023-01-13T23:23:05.801Z,6.70
2023-01-13T23:25:53.635Z,6.97
2023-01-13T23:28:40.047Z,8.68
2023-01-13T23:31:26.184Z,7.75
2023-01-13T23:34:12.838Z,9.77
2023-01-13T23:36:59.266Z,8.25
2023-01-13T23:39:45.356Z,7.20
2023-01-13T23:42:31.058Z,6.28
2023-01-13T23:45:17.740Z,12.73
2023-01-13T23:48:03.803Z,8.02
2023-01-13T23:50:58.657Z,8.45
2023-01-13T23:53:46.638Z,9.32
2023-01-13T23:56:34.154Z,6.03
2023-01-13T23:59:20.548Z,11.65
